createdAt,value
2019-05-29T00:02:20.539Z,9.88
2019-05-29T00:04:51.309Z,9.81
2019-05-29T00:07:22.411Z,9.77
2019-05-29T00:09:53.258Z,9.68
2019-05-29T00:12:24.036Z,9.62
2019-05-29T00:14:55.036Z,9.57
2019-05-29T00:17:26.291Z,9.53
2019-05-29T00:19:58.030Z,9.50
2019-05-29T00:22:29.093Z,9.44
2019-05-29T00:25:00.229Z,9.41
2019-05-29T00:27:31.612Z,9.45
2019-05-29T00:30:03.967Z,9.44
2019-05-29T00:32:35.874Z,9.40
2019-05-29T00:35:08.284Z,9.37
2019-05-29T00:37:41.034Z,9.41
2019-05-29T00:40:12.978Z,9.51
2019-05-29T00:42:44.360Z,9.60
2019-05-29T00:45:15.677Z,9.55
2019-05-29T00:47:46.429Z,9.59
2019-05-29T00:50:17.478Z,9.62
2019-05-29T00:52:48.583Z,9.61
2019-05-29T00:55:19.427Z,9.66
2019-05-29T00:57:50.469Z,9.66
2019-05-29T01:00:21.628Z,9.58
2019-05-29T01:02:52.694Z,9.57
2019-05-29T01:05:23.506Z,9.54
2019-05-29T01:07:54.802Z,9.52
2019-05-29T01:10:25.960Z,9.51
2019-05-29T01:12:56.826Z,9.48
2019-05-29T01:15:31.179Z,9.59
2019-05-29T01:18:02.249Z,9.56
2019-05-29T01:20:33.583Z,9.63
2019-05-29T01:23:04.438Z,9.69
2019-05-29T01:25:35.358Z,9.73
2019-05-29T01:28:06.283Z,9.76
2019-05-29T01:30:37.119Z,9.87
2019-05-29T01:33:07.901Z,9.94
2019-05-29T01:35:39.230Z,9.95
2019-05-29T01:38:10.332Z,9.95
2019-05-29T01:40:41.184Z,10.02
2019-05-29T01:43:12.057Z,10.04
2019-05-29T01:45:42.839Z,10.13
2019-05-29T01:48:13.702Z,10.13
2019-05-29T01:50:44.552Z,10.15
2019-05-29T01:53:15.610Z,10.10
2019-05-29T01:55:46.643Z,10.10
2019-05-29T01:58:18.050Z,10.13
2019-05-29T02:00:49.143Z,10.11
2019-05-29T02:03:20.181Z,10.15
2019-05-29T02:05:50.950Z,10.21
2019-05-29T02:08:22.145Z,10.26
2019-05-29T02:10:53.435Z,10.22
2019-05-29T02:13:24.272Z,10.30
2019-05-29T02:15:55.064Z,10.30
2019-05-29T02:18:26.983Z,10.32
2019-05-29T02:20:57.825Z,10.37
2019-05-29T02:23:28.695Z,10.44
2019-05-29T02:25:59.798Z,10.45
2019-05-29T02:28:30.918Z,10.50
2019-05-29T02:31:01.942Z,10.47
2019-05-29T02:33:33.195Z,10.50
2019-05-29T02:36:04.047Z,10.53
2019-05-29T02:38:35.057Z,10.51
2019-05-29T02:41:06.060Z,10.48
2019-05-29T02:43:36.864Z,10.50
2019-05-29T02:46:07.879Z,10.40
2019-05-29T02:48:38.746Z,10.42
2019-05-29T02:51:12.233Z,10.40
2019-05-29T02:53:42.903Z,10.41
2019-05-29T02:56:13.700Z,10.41
2019-05-29T02:58:44.478Z,10.33
2019-05-29T03:01:15.540Z,10.37
2019-05-29T03:03:46.328Z,10.45
2019-05-29T03:06:17.178Z,10.42
2019-05-29T03:08:48.032Z,10.45
2019-05-29T03:11:19.196Z,10.37
2019-05-29T03:13:50.288Z,10.44
2019-05-29T03:16:23.626Z,10.41
2019-05-29T03:18:54.528Z,10.35
2019-05-29T03:21:26.067Z,10.30
2019-05-29T03:23:57.216Z,10.33
2019-05-29T03:26:29.412Z,10.28
2019-05-29T03:29:00.772Z,10.24
2019-05-29T03:31:41.977Z,10.28
2019-05-29T03:34:04.703Z,10.33
2019-05-29T03:36:43.798Z,10.30
2019-05-29T03:39:08.765Z,10.35
2019-05-29T03:41:39.804Z,10.35
2019-05-29T03:44:11.163Z,10.37
2019-05-29T03:46:45.741Z,10.42
2019-05-29T03:49:15.217Z,10.48
2019-05-29T03:51:46.553Z,10.51
2019-05-29T03:54:17.669Z,10.54
2019-05-29T03:56:48.932Z,10.58
2019-05-29T03:59:20.952Z,10.64
2019-05-29T04:01:51.724Z,10.60
2019-05-29T04:04:22.508Z,10.63
2019-05-29T04:06:53.283Z,10.61
2019-05-29T04:09:24.361Z,10.66
2019-05-29T04:11:55.712Z,10.67
2019-05-29T04:14:27.531Z,10.73
2019-05-29T04:17:00.626Z,10.76
2019-05-29T04:19:34.311Z,10.82
2019-05-29T04:22:09.604Z,10.88
2019-05-29T04:24:41.115Z,10.94
2019-05-29T04:27:13.495Z,11.02
2019-05-29T04:29:44.323Z,11.03
2019-05-29T04:32:15.167Z,11.09
2019-05-29T04:34:45.961Z,11.15
2019-05-29T04:37:16.820Z,11.18
2019-05-29T04:39:47.612Z,11.19
2019-05-29T04:42:18.696Z,11.24
2019-05-29T04:44:49.717Z,11.35
2019-05-29T04:47:20.592Z,11.45
2019-05-29T04:49:51.400Z,11.53
2019-05-29T04:52:22.186Z,11.53
2019-05-29T04:54:53.230Z,11.59
2019-05-29T04:57:24.325Z,11.50
2019-05-29T04:59:55.349Z,11.67
2019-05-29T05:02:26.134Z,11.74
2019-05-29T05:04:57.171Z,11.84
2019-05-29T05:07:29.667Z,11.83
2019-05-29T05:10:00.892Z,11.99
2019-05-29T05:12:31.721Z,12.03
2019-05-29T05:15:02.805Z,12.04
2019-05-29T05:17:34.168Z,12.02
2019-05-29T05:20:06.148Z,12.10
2019-05-29T05:22:38.125Z,12.13
2019-05-29T05:25:09.071Z,12.19
2019-05-29T05:27:40.681Z,12.28
2019-05-29T05:30:11.598Z,12.41
2019-05-29T05:32:42.595Z,12.37
2019-05-29T05:35:14.472Z,12.49
2019-05-29T05:37:45.539Z,12.69
2019-05-29T05:40:16.524Z,13.71
2019-05-29T05:42:47.537Z,13.17
2019-05-29T05:45:18.718Z,12.82
2019-05-29T05:47:57.334Z,12.82
2019-05-29T05:50:23.049Z,12.85
2019-05-29T05:52:54.386Z,12.85
2019-05-29T05:55:25.259Z,12.84
2019-05-29T05:57:56.038Z,12.96
2019-05-29T06:00:31.874Z,12.96
2019-05-29T06:03:03.804Z,12.95
2019-05-29T06:05:36.098Z,13.05
2019-05-29T06:08:07.542Z,13.21
2019-05-29T06:10:38.399Z,13.11
2019-05-29T06:13:09.967Z,13.24
2019-05-29T06:15:41.003Z,13.45
2019-05-29T06:18:21.144Z,13.40
2019-05-29T06:20:44.604Z,13.60
2019-05-29T06:23:15.540Z,13.40
2019-05-29T06:25:46.393Z,13.43
2019-05-29T06:28:17.239Z,13.30
2019-05-29T06:30:48.492Z,13.34
2019-05-29T06:33:19.464Z,13.47
2019-05-29T06:35:50.509Z,13.47
2019-05-29T06:38:21.795Z,13.70
2019-05-29T06:40:52.722Z,13.70
2019-05-29T06:43:24.882Z,13.77
2019-05-29T06:45:56.502Z,13.67
2019-05-29T06:48:42.400Z,13.67
2019-05-29T06:51:00.951Z,13.75
2019-05-29T06:53:32.229Z,13.69
2019-05-29T06:56:03.625Z,13.69
2019-05-29T06:58:35.879Z,13.74
2019-05-29T07:01:06.965Z,13.61
2019-05-29T07:03:37.819Z,13.68
2019-05-29T07:06:08.726Z,13.88
2019-05-29T07:08:44.221Z,13.83
2019-05-29T07:11:12.339Z,13.64
2019-05-29T07:13:47.057Z,13.53
2019-05-29T07:16:17.204Z,13.68
2019-05-29T07:19:23.335Z,13.79
2019-05-29T07:21:21.184Z,13.90
2019-05-29T07:23:52.209Z,13.99
2019-05-29T07:26:23.074Z,13.97
2019-05-29T07:29:06.423Z,13.87
2019-05-29T07:31:26.322Z,14.03
2019-05-29T07:33:57.395Z,13.99
2019-05-29T07:36:28.587Z,14.06
2019-05-29T07:39:03.515Z,14.26
2019-05-29T07:41:32.735Z,14.45
2019-05-29T07:44:03.684Z,14.44
2019-05-29T07:46:35.028Z,14.72
2019-05-29T07:49:06.014Z,14.70
2019-05-29T07:51:38.138Z,15.05
2019-05-29T07:54:09.548Z,15.03
2019-05-29T07:56:40.725Z,15.02
2019-05-29T07:59:11.540Z,15.23
2019-05-29T08:01:42.892Z,15.08
2019-05-29T08:04:13.766Z,15.14
2019-05-29T08:06:50.737Z,15.55
2019-05-29T08:09:17.110Z,15.60
2019-05-29T08:11:50.004Z,15.70
2019-05-29T08:14:21.048Z,16.01
2019-05-29T08:16:51.930Z,15.79
2019-05-29T08:19:23.241Z,15.63
2019-05-29T08:21:54.614Z,15.62
2019-05-29T08:24:25.847Z,15.45
2019-05-29T08:26:57.302Z,15.39
2019-05-29T08:29:28.099Z,15.18
2019-05-29T08:31:59.212Z,15.18
2019-05-29T08:34:30.029Z,15.39
2019-05-29T08:37:07.002Z,15.03
2019-05-29T08:39:36.781Z,14.97
2019-05-29T08:42:22.656Z,15.00
2019-05-29T08:44:39.656Z,15.17
2019-05-29T08:47:11.208Z,15.22
2019-05-29T08:49:42.284Z,14.94
2019-05-29T08:52:13.422Z,14.95
2019-05-29T08:54:44.271Z,14.73
2019-05-29T08:57:15.386Z,14.73
2019-05-29T08:59:46.456Z,14.92
2019-05-29T09:02:17.306Z,14.88
2019-05-29T09:04:50.180Z,14.76
2019-05-29T09:07:22.207Z,14.95
2019-05-29T09:09:53.363Z,15.13
2019-05-29T09:12:24.234Z,15.32
2019-05-29T09:14:55.534Z,15.50
2019-05-29T09:17:26.622Z,15.45
2019-05-29T09:19:57.423Z,15.68
2019-05-29T09:22:28.191Z,16.11
2019-05-29T09:24:59.314Z,16.49
2019-05-29T09:27:31.256Z,16.22
2019-05-29T09:30:02.463Z,16.59
2019-05-29T09:32:49.382Z,16.56
2019-05-29T09:35:06.635Z,16.90
2019-05-29T09:37:37.786Z,16.93
2019-05-29T09:40:19.125Z,17.13
2019-05-29T09:42:50.217Z,16.90
2019-05-29T09:45:21.639Z,16.72
2019-05-29T09:47:52.701Z,16.65
2019-05-29T09:50:25.567Z,17.00
2019-05-29T09:52:57.202Z,17.22
2019-05-29T09:55:29.028Z,17.20
2019-05-29T09:58:00.719Z,16.99
2019-05-29T10:00:31.574Z,17.24
2019-05-29T10:03:03.784Z,17.37
2019-05-29T10:05:34.818Z,17.12
2019-05-29T10:08:06.046Z,17.28
2019-05-29T10:10:36.853Z,17.45
2019-05-29T10:13:07.945Z,17.55
2019-05-29T10:15:38.797Z,17.41
2019-05-29T10:18:30.090Z,18.04
2019-05-29T10:20:42.682Z,17.95
2019-05-29T10:23:13.790Z,18.04
2019-05-29T10:25:44.647Z,17.69
2019-05-29T10:28:15.435Z,17.35
2019-05-29T10:30:48.292Z,17.11
2019-05-29T10:33:19.302Z,16.96
2019-05-29T10:35:53.302Z,17.44
2019-05-29T10:38:23.036Z,17.37
2019-05-29T10:41:05.198Z,17.65
2019-05-29T10:43:34.125Z,17.27
2019-05-29T10:45:59.341Z,17.54
2019-05-29T10:48:30.491Z,17.51
2019-05-29T10:51:01.319Z,17.40
2019-05-29T10:53:32.363Z,18.05
2019-05-29T10:56:03.446Z,18.72
2019-05-29T10:58:48.059Z,18.42
2019-05-29T11:01:07.387Z,18.27
2019-05-29T11:03:38.505Z,17.52
2019-05-29T11:06:09.282Z,18.75
2019-05-29T11:08:40.077Z,19.10
2019-05-29T11:11:11.377Z,19.40
2019-05-29T11:13:42.510Z,18.70
2019-05-29T11:16:13.363Z,18.25
2019-05-29T11:18:44.445Z,17.65
2019-05-29T11:21:15.381Z,17.44
2019-05-29T11:23:47.709Z,17.17
2019-05-29T11:26:18.607Z,17.67
2019-05-29T11:28:50.345Z,17.85
2019-05-29T11:31:21.169Z,17.48
2019-05-29T11:33:53.050Z,17.78
2019-05-29T11:36:24.011Z,17.60
2019-05-29T11:38:54.868Z,17.69
2019-05-29T11:41:26.862Z,17.75
2019-05-29T11:43:58.903Z,17.90
2019-05-29T11:46:29.951Z,17.73
2019-05-29T11:49:00.991Z,17.65
2019-05-29T11:51:32.023Z,18.01
2019-05-29T11:54:03.323Z,18.09
2019-05-29T11:56:34.658Z,18.42
2019-05-29T11:59:05.705Z,18.48
2019-05-29T12:01:49.549Z,18.59
2019-05-29T12:04:24.161Z,18.59
2019-05-29T12:06:41.690Z,18.50
2019-05-29T12:09:12.581Z,19.16
2019-05-29T12:11:43.892Z,19.79
2019-05-29T12:14:14.708Z,20.18
2019-05-29T12:16:46.263Z,20.39
2019-05-29T12:19:17.205Z,19.69
2019-05-29T12:21:48.085Z,19.42
2019-05-29T12:24:18.948Z,19.36
2019-05-29T12:26:49.974Z,19.30
2019-05-29T12:29:20.759Z,19.86
2019-05-29T12:31:52.841Z,20.04
2019-05-29T12:34:23.844Z,20.14
2019-05-29T12:36:55.356Z,20.47
2019-05-29T12:39:26.579Z,20.13
2019-05-29T12:41:57.652Z,19.27
2019-05-29T12:44:28.710Z,19.48
2019-05-29T12:46:59.904Z,18.75
2019-05-29T12:49:30.640Z,18.61
2019-05-29T12:52:02.000Z,18.38
2019-05-29T12:54:33.175Z,18.12
2019-05-29T12:57:04.308Z,17.88
2019-05-29T12:59:38.205Z,17.76
2019-05-29T13:02:09.179Z,17.93
2019-05-29T13:05:05.985Z,17.97
2019-05-29T13:07:12.740Z,17.89
2019-05-29T13:09:43.592Z,17.63
2019-05-29T13:12:15.329Z,17.70
2019-05-29T13:14:46.188Z,18.04
2019-05-29T13:17:17.044Z,17.55
2019-05-29T13:19:48.402Z,17.69
2019-05-29T13:22:19.569Z,17.74
2019-05-29T13:24:52.838Z,17.68
2019-05-29T13:27:24.019Z,17.95
2019-05-29T13:29:58.137Z,17.91
2019-05-29T13:32:27.756Z,17.63
2019-05-29T13:35:00.393Z,17.47
2019-05-29T13:37:31.206Z,17.54
2019-05-29T13:40:05.548Z,17.76
2019-05-29T13:42:34.987Z,17.93
2019-05-29T13:45:13.589Z,18.01
2019-05-29T13:47:38.868Z,18.11
2019-05-29T13:50:12.338Z,18.33
2019-05-29T13:52:42.638Z,18.31
2019-05-29T13:55:14.204Z,18.38
2019-05-29T13:57:45.063Z,18.61
2019-05-29T14:00:32.325Z,18.67
2019-05-29T14:02:48.916Z,18.89
2019-05-29T14:05:20.817Z,18.93
2019-05-29T14:07:51.660Z,18.69
2019-05-29T14:10:22.831Z,18.70
2019-05-29T14:12:54.099Z,19.18
2019-05-29T14:15:24.977Z,18.96
2019-05-29T14:17:55.746Z,18.93
2019-05-29T14:20:27.080Z,18.65
2019-05-29T14:22:58.397Z,18.70
2019-05-29T14:25:29.832Z,18.81
2019-05-29T14:28:00.898Z,18.85
2019-05-29T14:30:31.941Z,18.95
2019-05-29T14:33:04.435Z,18.85
2019-05-29T14:35:35.551Z,18.45
2019-05-29T14:38:10.763Z,18.70
2019-05-29T14:40:39.185Z,18.68
2019-05-29T14:43:14.892Z,18.95
2019-05-29T14:45:42.703Z,19.10
2019-05-29T14:48:13.554Z,19.14
2019-05-29T14:50:44.331Z,18.76
2019-05-29T14:53:15.865Z,19.11
2019-05-29T14:55:46.719Z,19.10
2019-05-29T14:58:17.497Z,19.17
2019-05-29T15:00:48.536Z,19.17
2019-05-29T15:03:19.385Z,19.02
2019-05-29T15:05:50.487Z,18.79
2019-05-29T15:08:21.345Z,19.27
2019-05-29T15:10:52.382Z,19.62
2019-05-29T15:13:23.169Z,19.96
2019-05-29T15:15:53.976Z,19.83
2019-05-29T15:18:24.752Z,19.53
2019-05-29T15:20:55.552Z,18.97
2019-05-29T15:23:26.325Z,19.21
2019-05-29T15:25:57.271Z,19.89
2019-05-29T15:28:28.407Z,20.33
2019-05-29T15:30:59.414Z,20.31
2019-05-29T15:33:30.438Z,20.00
2019-05-29T15:36:01.487Z,19.74
2019-05-29T15:38:32.250Z,19.95
2019-05-29T15:41:03.113Z,19.41
2019-05-29T15:43:33.887Z,19.32
2019-05-29T15:46:05.115Z,18.88
2019-05-29T15:48:36.124Z,18.87
2019-05-29T15:51:07.235Z,19.09
2019-05-29T15:53:38.009Z,19.46
2019-05-29T15:56:21.620Z,19.69
2019-05-29T15:58:41.579Z,19.73
2019-05-29T16:01:13.760Z,19.30
2019-05-29T16:03:44.653Z,19.59
2019-05-29T16:06:16.071Z,19.59
2019-05-29T16:08:47.071Z,19.55
2019-05-29T16:11:18.810Z,19.58
2019-05-29T16:13:50.917Z,19.69
2019-05-29T16:16:21.985Z,19.80
2019-05-29T16:18:52.756Z,19.96
2019-05-29T16:21:23.627Z,19.87
2019-05-29T16:23:54.661Z,19.94
2019-05-29T16:26:25.443Z,19.84
2019-05-29T16:28:56.282Z,19.72
2019-05-29T16:31:28.583Z,20.05
2019-05-29T16:34:00.435Z,20.30
2019-05-29T16:36:31.864Z,20.55
2019-05-29T16:39:03.005Z,20.87
2019-05-29T16:41:36.195Z,21.63
2019-05-29T16:44:07.045Z,21.01
2019-05-29T16:46:38.338Z,21.55
2019-05-29T16:49:09.204Z,22.26
2019-05-29T16:51:42.096Z,21.30
2019-05-29T16:54:12.956Z,22.27
2019-05-29T16:56:44.040Z,22.18
2019-05-29T16:59:14.979Z,21.88
2019-05-29T17:01:46.042Z,22.04
2019-05-29T17:04:17.695Z,22.15
2019-05-29T17:06:48.504Z,22.05
2019-05-29T17:09:20.284Z,22.28
2019-05-29T17:11:51.607Z,20.80
2019-05-29T17:14:22.885Z,20.03
2019-05-29T17:16:53.986Z,19.15
2019-05-29T17:19:25.563Z,18.77
2019-05-29T17:21:56.715Z,18.27
2019-05-29T17:24:27.821Z,18.00
2019-05-29T17:26:58.917Z,17.78
2019-05-29T17:29:29.755Z,17.46
2019-05-29T17:32:00.859Z,17.05
2019-05-29T17:34:31.881Z,16.79
2019-05-29T17:37:02.999Z,16.60
2019-05-29T17:39:34.908Z,16.44
2019-05-29T17:42:05.762Z,16.39
2019-05-29T17:44:36.771Z,16.22
2019-05-29T17:47:07.703Z,16.23
2019-05-29T17:49:39.124Z,16.18
2019-05-29T17:52:13.172Z,16.16
2019-05-29T17:54:44.121Z,16.11
2019-05-29T17:57:16.500Z,15.97
2019-05-29T17:59:47.383Z,15.87
2019-05-29T18:02:18.515Z,15.73
2019-05-29T18:04:49.635Z,15.64
2019-05-29T18:07:20.753Z,15.71
2019-05-29T18:09:51.571Z,15.39
2019-05-29T18:12:25.022Z,15.42
2019-05-29T18:14:55.895Z,15.62
2019-05-29T18:17:27.763Z,15.59
2019-05-29T18:19:59.184Z,15.40
2019-05-29T18:22:30.047Z,15.42
2019-05-29T18:25:01.051Z,15.42
2019-05-29T18:27:31.831Z,15.45
2019-05-29T18:30:02.931Z,15.34
2019-05-29T18:32:34.633Z,15.39
2019-05-29T18:35:06.335Z,15.38
2019-05-29T18:37:37.650Z,15.23
2019-05-29T18:40:12.437Z,15.20
2019-05-29T18:42:41.518Z,15.08
2019-05-29T18:45:20.880Z,15.02
2019-05-29T18:47:45.955Z,14.90
2019-05-29T18:50:17.089Z,14.85
2019-05-29T18:52:48.041Z,14.74
2019-05-29T18:55:19.125Z,14.58
2019-05-29T18:57:50.183Z,14.46
2019-05-29T19:00:21.559Z,14.39
2019-05-29T19:02:52.460Z,14.39
2019-05-29T19:05:23.941Z,14.30
2019-05-29T19:07:55.054Z,14.34
2019-05-29T19:10:26.013Z,14.33
2019-05-29T19:12:56.808Z,14.16
2019-05-29T19:15:28.039Z,14.00
2019-05-29T19:17:58.896Z,13.88
2019-05-29T19:20:30.489Z,13.66
2019-05-29T19:23:01.390Z,13.53
2019-05-29T19:25:33.035Z,13.45
2019-05-29T19:28:04.000Z,13.30
2019-05-29T19:30:34.962Z,13.21
2019-05-29T19:33:05.828Z,13.06
2019-05-29T19:35:36.960Z,12.87
2019-05-29T19:38:07.806Z,12.69
2019-05-29T19:40:38.592Z,12.59
2019-05-29T19:43:09.695Z,12.53
2019-05-29T19:45:41.120Z,12.49
2019-05-29T19:48:11.924Z,12.41
2019-05-29T19:50:42.707Z,12.38
2019-05-29T19:53:13.974Z,12.27
2019-05-29T19:55:45.084Z,12.14
2019-05-29T19:58:16.320Z,12.16
2019-05-29T20:00:47.552Z,12.02
2019-05-29T20:03:20.203Z,11.95
2019-05-29T20:05:51.305Z,11.91
2019-05-29T20:08:22.582Z,11.85
2019-05-29T20:10:53.444Z,11.79
2019-05-29T20:13:24.553Z,11.71
2019-05-29T20:15:55.610Z,11.70
2019-05-29T20:18:27.947Z,11.60
2019-05-29T20:20:59.058Z,11.41
2019-05-29T20:23:30.555Z,11.30
2019-05-29T20:26:01.328Z,11.22
2019-05-29T20:28:32.172Z,11.17
2019-05-29T20:31:03.239Z,11.20
2019-05-29T20:33:34.566Z,11.15
2019-05-29T20:36:05.536Z,11.12
2019-05-29T20:38:37.180Z,11.08
2019-05-29T20:41:07.960Z,11.11
2019-05-29T20:43:39.764Z,11.08
2019-05-29T20:46:10.616Z,11.05
2019-05-29T20:48:42.985Z,10.98
2019-05-29T20:51:13.775Z,10.89
2019-05-29T20:53:44.567Z,10.88
2019-05-29T20:56:15.353Z,10.86
2019-05-29T20:58:46.480Z,10.77
2019-05-29T21:01:17.579Z,10.72
2019-05-29T21:03:48.398Z,10.70
2019-05-29T21:06:19.777Z,10.67
2019-05-29T21:08:51.254Z,10.69
2019-05-29T21:11:22.110Z,10.73
2019-05-29T21:13:53.209Z,10.66
2019-05-29T21:16:24.335Z,10.57
2019-05-29T21:18:55.809Z,10.60
2019-05-29T21:21:26.960Z,10.55
2019-05-29T21:23:58.041Z,10.55
2019-05-29T21:26:29.566Z,10.49
2019-05-29T21:29:00.674Z,10.45
2019-05-29T21:31:31.572Z,10.38
2019-05-29T21:34:02.660Z,10.34
2019-05-29T21:36:33.991Z,10.30
2019-05-29T21:39:06.906Z,10.33
2019-05-29T21:41:38.369Z,10.28
2019-05-29T21:44:09.450Z,10.21
2019-05-29T21:46:40.959Z,10.18
2019-05-29T21:49:11.801Z,10.15
2019-05-29T21:51:43.632Z,10.09
2019-05-29T21:54:14.749Z,10.03
2019-05-29T21:56:45.902Z,10.03
2019-05-29T21:59:16.695Z,10.11
2019-05-29T22:01:48.373Z,10.08
2019-05-29T22:04:19.506Z,10.00
2019-05-29T22:06:50.620Z,9.92
2019-05-29T22:09:21.651Z,10.01
2019-05-29T22:11:52.702Z,10.10
2019-05-29T22:14:23.823Z,10.15
2019-05-29T22:16:54.970Z,10.20
2019-05-29T22:19:25.871Z,10.24
2019-05-29T22:21:57.159Z,10.27
2019-05-29T22:24:28.262Z,10.30
2019-05-29T22:26:59.389Z,10.30
2019-05-29T22:29:30.658Z,10.20
2019-05-29T22:32:01.744Z,10.12
2019-05-29T22:34:33.636Z,10.24
2019-05-29T22:37:04.575Z,10.18
2019-05-29T22:39:35.429Z,10.20
2019-05-29T22:42:07.297Z,10.16
2019-05-29T22:44:38.843Z,10.15
2019-05-29T22:47:10.284Z,10.17
2019-05-29T22:49:41.073Z,10.23
2019-05-29T22:52:12.347Z,10.30
2019-05-29T22:54:43.218Z,10.34
2019-05-29T22:57:14.388Z,10.48
2019-05-29T22:59:45.737Z,10.61
2019-05-29T23:02:16.524Z,10.55
2019-05-29T23:04:47.777Z,10.45
2019-05-29T23:07:18.646Z,10.51
2019-05-29T23:09:49.411Z,10.62
2019-05-29T23:12:20.513Z,10.50
2019-05-29T23:14:52.477Z,10.48
2019-05-29T23:17:24.330Z,10.54
2019-05-29T23:19:56.669Z,10.59
2019-05-29T23:22:27.488Z,10.57
2019-05-29T23:24:59.202Z,10.48
2019-05-29T23:27:30.337Z,10.43
2019-05-29T23:30:01.165Z,10.39
2019-05-29T23:32:31.993Z,10.43
2019-05-29T23:35:03.501Z,10.57
2019-05-29T23:37:34.375Z,10.64
2019-05-29T23:40:05.734Z,10.63
2019-05-29T23:42:36.608Z,10.73
2019-05-29T23:45:07.885Z,10.77
2019-05-29T23:47:38.773Z,10.68
2019-05-29T23:50:10.007Z,10.60
2019-05-29T23:52:40.806Z,10.71
2019-05-29T23:55:12.124Z,10.68
2019-05-29T23:57:42.990Z,10.69
